createdAt,value
2023-03-10T00:01:21.210Z,2.60
2023-03-10T00:05:24.052Z,2.60
2023-03-10T00:09:26.897Z,2.50
2023-03-10T00:13:29.717Z,2.50
2023-03-10T00:17:34.411Z,2.60
2023-03-10T00:21:37.263Z,2.60
2023-03-10T00:25:40.545Z,2.50
2023-03-10T00:29:43.358Z,2.50
2023-03-10T00:33:47.597Z,2.50
2023-03-10T00:37:50.418Z,2.50
2023-03-10T00:41:53.209Z,2.50
2023-03-10T00:45:56.259Z,2.50
2023-03-10T00:50:00.423Z,2.50
2023-03-10T00:54:04.358Z,2.50
2023-03-10T00:58:07.179Z,2.50
2023-03-10T01:02:10.059Z,2.50
2023-03-10T01:06:14.724Z,2.50
2023-03-10T01:10:18.218Z,2.50
2023-03-10T01:14:21.103Z,2.50
2023-03-10T01:18:23.964Z,2.50
2023-03-10T01:22:28.101Z,2.50
2023-03-10T01:26:31.449Z,2.50
2023-03-10T01:30:34.267Z,2.50
2023-03-10T01:34:37.209Z,2.50
2023-03-10T01:38:41.328Z,2.60
2023-03-10T01:42:44.214Z,2.50
2023-03-10T01:46:48.623Z,2.60
2023-03-10T01:50:54.702Z,2.60
2023-03-10T01:55:02.069Z,2.60
2023-03-10T01:59:05.048Z,2.60
2023-03-10T02:03:10.109Z,2.60
2023-03-10T02:07:13.431Z,2.60
2023-03-10T02:11:17.820Z,2.60
2023-03-10T02:15:20.769Z,2.60
2023-03-10T02:19:32.006Z,2.60
2023-03-10T02:23:42.951Z,2.60
2023-03-10T02:27:49.788Z,2.70
2023-03-10T02:31:53.664Z,2.70
2023-03-10T02:36:02.852Z,2.70
2023-03-10T02:40:07.978Z,2.70
2023-03-10T02:44:13.858Z,2.70
2023-03-10T02:48:19.911Z,2.70
2023-03-10T02:52:26.468Z,2.70
2023-03-10T02:56:29.547Z,2.70
2023-03-10T03:00:33.686Z,2.70
2023-03-10T03:04:36.670Z,2.70
2023-03-10T03:08:39.673Z,2.70
2023-03-10T03:12:42.560Z,2.70
2023-03-10T03:16:46.731Z,2.70
2023-03-10T03:20:49.667Z,2.70
2023-03-10T03:24:52.480Z,2.70
2023-03-10T03:28:56.496Z,2.70
2023-03-10T03:33:01.799Z,2.80
2023-03-10T03:37:04.605Z,2.80
2023-03-10T03:41:07.549Z,2.80
2023-03-10T03:45:11.029Z,2.80
2023-03-10T03:49:15.191Z,2.80
2023-03-10T03:53:18.018Z,2.80
2023-03-10T03:57:21.173Z,2.80
2023-03-10T04:01:24.221Z,2.80
2023-03-10T04:05:28.491Z,2.80
2023-03-10T04:09:31.717Z,2.80
2023-03-10T04:13:34.500Z,2.80
2023-03-10T04:17:37.464Z,2.80
2023-03-10T04:21:41.643Z,2.80
2023-03-10T04:25:44.556Z,2.80
2023-03-10T04:29:47.368Z,2.80
2023-03-10T04:33:50.210Z,2.80
2023-03-10T04:37:54.362Z,2.80
2023-03-10T04:41:57.177Z,2.80
2023-03-10T04:46:00.066Z,2.80
2023-03-10T04:50:02.912Z,2.80
2023-03-10T04:54:07.102Z,2.80
2023-03-10T04:58:09.908Z,2.80
2023-03-10T05:02:12.697Z,2.80
2023-03-10T05:06:16.498Z,2.80
2023-03-10T05:10:20.729Z,2.80
2023-03-10T05:14:23.607Z,2.80
2023-03-10T05:18:26.420Z,2.80
2023-03-10T05:22:29.215Z,2.80
2023-03-10T05:26:34.883Z,2.80
2023-03-10T05:30:37.869Z,2.80
2023-03-10T05:34:40.706Z,2.80
2023-03-10T05:38:43.510Z,2.80
2023-03-10T05:42:47.750Z,2.80
2023-03-10T05:46:50.708Z,2.80
2023-03-10T05:51:00.498Z,2.80
2023-03-10T05:55:03.437Z,2.80
2023-03-10T05:59:07.938Z,2.80
2023-03-10T06:03:10.892Z,2.80
2023-03-10T06:07:14.845Z,2.80
2023-03-10T06:11:18.465Z,2.80
2023-03-10T06:15:22.790Z,2.80
2023-03-10T06:19:26.193Z,2.80
2023-03-10T06:23:29.081Z,2.80
2023-03-10T06:27:31.945Z,2.90
2023-03-10T06:31:36.168Z,2.90
2023-03-10T06:35:39.251Z,2.90
2023-03-10T06:39:42.360Z,2.90
2023-03-10T06:43:45.433Z,2.90
2023-03-10T06:47:51.617Z,2.90
2023-03-10T06:51:54.424Z,2.90
2023-03-10T06:55:58.074Z,2.90
2023-03-10T07:00:00.893Z,3.00
2023-03-10T07:04:05.038Z,3.00
2023-03-10T07:08:07.950Z,3.00
2023-03-10T07:12:10.824Z,3.00
2023-03-10T07:16:13.784Z,3.00
2023-03-10T07:20:18.196Z,3.00
2023-03-10T07:24:21.924Z,3.10
2023-03-10T07:28:28.107Z,3.10
2023-03-10T07:32:31.104Z,3.10
2023-03-10T07:36:37.699Z,3.20
2023-03-10T07:40:40.873Z,3.20
2023-03-10T07:44:43.755Z,3.20
2023-03-10T07:48:46.546Z,3.30
2023-03-10T07:52:51.043Z,3.30
2023-03-10T07:56:54.002Z,3.40
2023-03-10T08:00:57.390Z,3.40
2023-03-10T08:05:00.285Z,3.40
2023-03-10T08:09:04.633Z,3.40
2023-03-10T08:13:07.439Z,3.50
2023-03-10T08:17:10.261Z,3.50
2023-03-10T08:21:13.176Z,3.50
2023-03-10T08:25:17.400Z,3.70
2023-03-10T08:29:20.243Z,3.70
2023-03-10T08:33:23.084Z,3.80
2023-03-10T08:37:26.127Z,3.90
2023-03-10T08:41:31.167Z,3.90
2023-03-10T08:45:33.980Z,4.00
2023-03-10T08:49:37.471Z,4.10
2023-03-10T08:53:41.048Z,4.10
2023-03-10T08:57:45.481Z,4.20
2023-03-10T09:01:48.742Z,4.20
2023-03-10T09:05:52.276Z,4.20
2023-03-10T09:09:55.250Z,4.20
2023-03-10T09:13:59.810Z,4.20
2023-03-10T09:18:02.941Z,4.30
2023-03-10T09:22:05.955Z,4.30
2023-03-10T09:26:08.825Z,4.30
2023-03-10T09:30:13.669Z,4.30
2023-03-10T09:34:16.470Z,4.30
2023-03-10T09:38:19.385Z,4.40
2023-03-10T09:42:38.334Z,4.40
2023-03-10T09:46:48.477Z,4.40
2023-03-10T09:50:52.491Z,4.50
2023-03-10T09:54:58.257Z,4.50
2023-03-10T09:59:05.522Z,4.50
2023-03-10T10:03:14.728Z,4.50
2023-03-10T10:07:20.939Z,4.60
2023-03-10T10:11:23.744Z,4.70
2023-03-10T10:15:27.894Z,4.80
2023-03-10T10:19:34.882Z,4.80
2023-03-10T10:23:41.403Z,4.80
2023-03-10T10:27:45.431Z,4.80
2023-03-10T10:32:03.112Z,4.80
2023-03-10T10:36:09.489Z,4.90
2023-03-10T10:40:24.195Z,4.90
2023-03-10T10:44:26.978Z,5.00
2023-03-10T10:48:34.127Z,5.00
2023-03-10T10:52:38.352Z,5.00
2023-03-10T10:56:52.522Z,5.00
2023-03-10T11:00:56.374Z,5.00
2023-03-10T11:05:07.967Z,5.00
2023-03-10T11:09:14.545Z,5.10
2023-03-10T11:13:20.959Z,5.10
2023-03-10T11:17:26.073Z,5.10
2023-03-10T11:21:29.781Z,5.10
2023-03-10T11:25:37.613Z,5.20
2023-03-10T11:29:47.622Z,5.20
2023-03-10T11:33:53.680Z,5.20
2023-03-10T11:38:01.845Z,5.20
2023-03-10T11:42:08.097Z,5.20
2023-03-10T11:46:14.934Z,5.20
2023-03-10T11:50:21.864Z,5.20
2023-03-10T11:54:27.186Z,5.20
2023-03-10T11:58:39.200Z,5.20
2023-03-10T12:02:43.979Z,5.20
2023-03-10T12:06:49.026Z,5.20
2023-03-10T12:10:52.225Z,5.30
2023-03-10T12:14:57.942Z,5.40
2023-03-10T12:19:00.953Z,5.50
2023-03-10T12:23:30.561Z,5.50
2023-03-10T12:27:56.560Z,5.60
2023-03-10T12:32:00.777Z,5.60
2023-03-10T12:36:04.412Z,5.60
2023-03-10T12:40:29.562Z,5.70
2023-03-10T12:44:53.506Z,5.70
2023-03-10T12:49:05.279Z,5.70
2023-03-10T12:53:20.805Z,5.70
2023-03-10T12:57:26.821Z,5.70
2023-03-10T13:01:35.051Z,5.70
2023-03-10T13:05:41.090Z,5.60
2023-03-10T13:09:48.308Z,5.60
2023-03-10T13:13:51.949Z,5.60
2023-03-10T13:17:55.654Z,5.60
2023-03-10T13:21:59.946Z,5.60
2023-03-10T13:26:03.795Z,5.60
2023-03-10T13:30:13.590Z,5.60
2023-03-10T13:34:20.004Z,5.60
2023-03-10T13:38:24.707Z,5.60
2023-03-10T13:42:42.896Z,5.60
2023-03-10T13:46:48.493Z,5.60
2023-03-10T13:51:04.073Z,5.60
2023-03-10T13:55:13.591Z,5.60
2023-03-10T13:59:20.488Z,5.60
2023-03-10T14:03:23.321Z,5.50
2023-03-10T14:07:26.994Z,5.50
2023-03-10T14:11:39.650Z,5.50
2023-03-10T14:15:53.253Z,5.50
2023-03-10T14:19:56.058Z,5.40
2023-03-10T14:24:03.912Z,5.40
2023-03-10T14:28:12.275Z,5.40
2023-03-10T14:32:15.089Z,5.40
2023-03-10T14:36:18.164Z,5.40
2023-03-10T14:40:22.178Z,5.40
2023-03-10T14:44:27.447Z,5.40
2023-03-10T14:48:31.682Z,5.40
2023-03-10T14:52:34.481Z,5.40
2023-03-10T14:56:37.302Z,5.50
2023-03-10T15:00:41.446Z,5.50
2023-03-10T15:04:44.327Z,5.50
2023-03-10T15:08:47.492Z,5.50
2023-03-10T15:12:51.011Z,5.50
2023-03-10T15:16:55.523Z,5.50
2023-03-10T15:21:00.229Z,5.40
2023-03-10T15:25:03.068Z,5.40
2023-03-10T15:29:05.882Z,5.40
2023-03-10T15:33:12.045Z,5.40
2023-03-10T15:37:14.884Z,5.40
2023-03-10T15:41:18.073Z,5.40
2023-03-10T15:45:20.874Z,5.40
2023-03-10T15:49:25.187Z,5.40
2023-03-10T15:53:28.000Z,5.30
2023-03-10T15:57:30.873Z,5.30
2023-03-10T16:01:33.704Z,5.30
2023-03-10T16:05:38.992Z,5.30
2023-03-10T16:09:41.786Z,5.20
2023-03-10T16:13:46.679Z,5.10
2023-03-10T16:17:49.502Z,5.10
2023-03-10T16:21:53.733Z,5.00
2023-03-10T16:26:10.310Z,5.00
2023-03-10T16:30:14.034Z,4.90
2023-03-10T16:34:17.141Z,4.90
2023-03-10T16:38:21.421Z,4.80
2023-03-10T16:42:24.477Z,4.80
2023-03-10T16:46:30.216Z,4.70
2023-03-10T16:50:35.540Z,4.70
2023-03-10T16:54:39.754Z,4.60
2023-03-10T16:58:42.759Z,4.60
2023-03-10T17:02:45.541Z,4.50
2023-03-10T17:06:49.039Z,4.50
2023-03-10T17:10:53.194Z,4.40
2023-03-10T17:14:57.664Z,4.40
2023-03-10T17:19:03.582Z,4.30
2023-03-10T17:23:06.410Z,4.30
2023-03-10T17:27:10.590Z,4.20
2023-03-10T17:31:14.355Z,4.20
2023-03-10T17:35:19.448Z,4.10
2023-03-10T17:39:23.690Z,4.10
2023-03-10T17:43:34.151Z,4.10
2023-03-10T17:47:37.462Z,4.00
2023-03-10T17:51:43.527Z,3.90
2023-03-10T17:55:46.324Z,3.80
2023-03-10T17:59:51.343Z,3.70
2023-03-10T18:03:54.164Z,3.60
2023-03-10T18:07:58.760Z,3.50
2023-03-10T18:12:01.571Z,3.40
2023-03-10T18:16:06.122Z,3.30
2023-03-10T18:20:11.356Z,3.20
2023-03-10T18:24:14.261Z,3.00
2023-03-10T18:28:19.209Z,2.90
2023-03-10T18:32:25.977Z,2.80
2023-03-10T18:36:29.523Z,2.70
2023-03-10T18:40:33.514Z,2.60
2023-03-10T18:44:36.315Z,2.50
2023-03-10T18:48:40.591Z,2.40
2023-03-10T18:52:43.408Z,2.30
2023-03-10T18:56:46.202Z,2.20
2023-03-10T19:00:49.423Z,2.10
2023-03-10T19:04:53.636Z,2.00
2023-03-10T19:08:56.735Z,2.00
2023-03-10T19:12:59.605Z,1.80
2023-03-10T19:17:02.546Z,1.80
2023-03-10T19:21:09.861Z,1.70
2023-03-10T19:25:13.724Z,1.70
2023-03-10T19:29:17.160Z,1.60
2023-03-10T19:33:20.084Z,1.60
2023-03-10T19:37:24.604Z,1.50
2023-03-10T19:41:27.889Z,1.50
2023-03-10T19:45:31.367Z,1.50
2023-03-10T19:49:34.923Z,1.50
2023-03-10T19:53:39.338Z,1.40
2023-03-10T19:57:43.653Z,1.40
2023-03-10T20:01:49.356Z,1.40
2023-03-10T20:05:53.177Z,1.40
2023-03-10T20:09:58.161Z,1.40
2023-03-10T20:14:01.614Z,1.40
2023-03-10T20:26:19.001Z,1.50
2023-03-10T20:30:23.253Z,1.40
2023-03-10T20:34:26.546Z,1.30
2023-03-10T20:38:31.251Z,1.30
2023-03-10T20:42:36.534Z,1.30
2023-03-10T20:46:39.920Z,1.30
2023-03-10T20:50:43.132Z,1.30
2023-03-10T20:54:46.621Z,1.30
2023-03-10T20:58:51.527Z,1.20
2023-03-10T21:02:59.905Z,1.30
2023-03-10T21:07:02.963Z,1.30
2023-03-10T21:11:06.369Z,1.20
2023-03-10T21:15:12.872Z,1.20
2023-03-10T21:19:18.259Z,1.20
2023-03-10T21:23:24.976Z,1.20
2023-03-10T21:27:28.673Z,1.20
2023-03-10T21:31:33.041Z,1.20
2023-03-10T21:35:38.816Z,1.20
2023-03-10T21:39:42.522Z,1.20
2023-03-10T21:43:48.641Z,1.20
2023-03-10T21:47:53.488Z,1.20
2023-03-10T21:51:57.042Z,1.20
2023-03-10T21:56:00.847Z,1.10
2023-03-10T22:00:04.403Z,1.10
2023-03-10T22:04:10.314Z,1.10
2023-03-10T22:08:13.148Z,1.10
2023-03-10T22:12:16.098Z,1.10
2023-03-10T22:16:18.938Z,1.10
2023-03-10T22:20:24.630Z,1.10
2023-03-10T22:24:27.474Z,1.10
2023-03-10T22:28:30.345Z,1.10
2023-03-10T22:32:33.339Z,1.10
2023-03-10T22:36:37.646Z,1.10
2023-03-10T22:40:40.795Z,1.10
2023-03-10T22:44:43.644Z,1.10
2023-03-10T22:48:46.472Z,1.10
2023-03-10T22:52:50.891Z,1.10
2023-03-10T22:56:53.934Z,1.10
2023-03-10T23:00:56.791Z,1.10
2023-03-10T23:04:59.612Z,1.10
2023-03-10T23:09:04.941Z,1.10
2023-03-10T23:13:09.528Z,1.10
2023-03-10T23:17:12.481Z,1.10
2023-03-10T23:21:15.305Z,1.10
2023-03-10T23:25:21.284Z,1.10
2023-03-10T23:29:24.062Z,1.10
2023-03-10T23:33:26.877Z,1.20
2023-03-10T23:37:29.674Z,1.10
2023-03-10T23:41:34.024Z,1.10
2023-03-10T23:45:37.761Z,1.10
2023-03-10T23:49:40.596Z,1.10
2023-03-10T23:53:43.647Z,1.10
2023-03-10T23:57:47.792Z,1.10
